createdAt,value
2018-04-18T00:03:11.006Z,10.85
2018-04-18T00:09:01.860Z,9.83
2018-04-18T00:14:52.759Z,16.17
2018-04-18T00:20:43.685Z,10.08
2018-04-18T00:26:34.574Z,7.52
2018-04-18T00:32:25.458Z,9.43
2018-04-18T00:38:16.335Z,9.41
2018-04-18T00:44:07.193Z,6.14
2018-04-18T00:49:58.126Z,14.73
2018-04-18T00:55:49.000Z,9.2
2018-04-18T01:01:39.939Z,13.3
2018-04-18T01:07:30.785Z,11.55
2018-04-18T01:13:21.730Z,12.94
2018-04-18T01:19:12.573Z,8.3
2018-04-18T01:25:03.444Z,11.93
2018-04-18T01:30:54.408Z,14.06
2018-04-18T01:36:45.212Z,11.73
2018-04-18T01:42:36.096Z,15.45
2018-04-18T01:48:27.065Z,12.02
2018-04-18T01:54:17.912Z,11.92
2018-04-18T02:00:08.837Z,15
2018-04-18T02:05:59.707Z,10.31
2018-04-18T02:11:50.534Z,11.06
2018-04-18T02:17:41.460Z,11.2
2018-04-18T02:23:32.383Z,10.31
2018-04-18T02:29:23.197Z,10.13
2018-04-18T02:35:14.075Z,13.89
2018-04-18T02:41:05.012Z,11.19
2018-04-18T02:46:55.871Z,11.23
2018-04-18T02:52:46.743Z,12
2018-04-18T02:58:37.623Z,12.69
2018-04-18T03:04:28.539Z,12.38
2018-04-18T03:10:19.378Z,9.84
2018-04-18T03:16:10.260Z,9.61
2018-04-18T03:22:01.202Z,10.71
2018-04-18T03:27:52.047Z,9.42
2018-04-18T03:33:42.955Z,7.62
2018-04-18T03:39:33.825Z,9.04
2018-04-18T03:45:24.691Z,12.84
2018-04-18T03:51:15.590Z,11.64
2018-04-18T03:57:06.461Z,14.84
2018-04-18T04:02:57.369Z,10.1
2018-04-18T04:08:48.258Z,10.83
2018-04-18T04:14:39.132Z,8.23
2018-04-18T04:20:30.039Z,10.14
2018-04-18T04:26:20.897Z,11.42
2018-04-18T04:32:11.816Z,18.58
2018-04-18T04:38:02.705Z,7.03
2018-04-18T04:43:53.556Z,10.53
2018-04-18T04:49:44.455Z,11.3
2018-04-18T04:55:35.337Z,13.43
2018-04-18T05:01:26.234Z,10.95
2018-04-18T05:07:17.085Z,11.04
2018-04-18T05:13:07.968Z,13.11
2018-04-18T05:18:58.833Z,11.26
2018-04-18T05:24:49.753Z,13.69
2018-04-18T05:30:40.599Z,10.36
2018-04-18T05:36:31.526Z,13.54
2018-04-18T05:42:22.392Z,15.97
2018-04-18T05:48:13.296Z,16.29
2018-04-18T05:54:04.152Z,20.56
2018-04-18T05:59:55.065Z,14.6
2018-04-18T06:05:45.883Z,17.09
2018-04-18T06:11:36.812Z,17.95
2018-04-18T06:17:27.659Z,18.22
2018-04-18T06:23:18.566Z,20.35
2018-04-18T06:29:09.495Z,22.12
2018-04-18T06:35:00.343Z,19.83
2018-04-18T06:40:51.295Z,22.54
2018-04-18T06:46:42.221Z,26.02
2018-04-18T06:52:33.075Z,23.43
2018-04-18T06:58:23.980Z,39.72
2018-04-18T07:04:14.845Z,43.82
2018-04-18T07:10:05.682Z,46.5
2018-04-18T07:15:56.484Z,51.34
2018-04-18T07:21:47.425Z,63.25
2018-04-18T07:27:38.354Z,50.87
2018-04-18T07:33:29.189Z,60.34
2018-04-18T07:39:20.073Z,51.9
2018-04-18T07:45:10.948Z,39.92
2018-04-18T07:51:01.830Z,51.95
2018-04-18T07:56:52.748Z,60.92
2018-04-18T08:02:43.625Z,47.74
2018-04-18T08:08:34.582Z,40.22
2018-04-18T08:14:25.389Z,35.12
2018-04-18T08:20:16.369Z,27.72
2018-04-18T08:26:07.200Z,21.95
2018-04-18T08:31:58.062Z,14.44
2018-04-18T08:37:48.954Z,10.96
2018-04-18T08:43:39.874Z,9.47
2018-04-18T08:49:30.736Z,9.35
2018-04-18T08:55:21.638Z,11.51
2018-04-18T09:01:12.501Z,9.75
2018-04-18T09:07:03.426Z,4.91
2018-04-18T09:12:54.337Z,4.9
2018-04-18T09:18:45.209Z,6.4
2018-04-18T09:24:36.112Z,11.77
2018-04-18T09:30:27.055Z,5.54
2018-04-18T09:36:17.870Z,7.69
2018-04-18T09:42:08.798Z,9.41
2018-04-18T09:47:59.698Z,4.14
2018-04-18T09:53:50.583Z,3.67
2018-04-18T09:59:41.504Z,7.22
2018-04-18T10:05:32.437Z,4.2
2018-04-18T10:11:23.303Z,4.93
2018-04-18T10:17:14.218Z,5.51
2018-04-18T10:23:05.160Z,5.41
2018-04-18T10:28:56.067Z,7.22
2018-04-18T10:34:46.921Z,9.32
2018-04-18T10:40:37.880Z,6.26
2018-04-18T10:46:28.786Z,6.31
2018-04-18T10:52:19.675Z,11.51
2018-04-18T10:58:10.585Z,13.21
2018-04-18T11:04:01.434Z,12.79
2018-04-18T11:09:52.417Z,11
2018-04-18T11:15:43.292Z,14.11
2018-04-18T11:21:34.240Z,17.37
2018-04-18T11:27:25.105Z,27.09
2018-04-18T11:33:16.019Z,21.66
2018-04-18T11:39:06.930Z,22.91
2018-04-18T11:44:57.814Z,14.7
2018-04-18T11:50:48.727Z,10.6
2018-04-18T11:56:39.631Z,6.64
2018-04-18T12:02:30.593Z,8.23
2018-04-18T12:08:21.472Z,12.24
2018-04-18T12:14:12.393Z,16.8
2018-04-18T12:20:03.352Z,15.87
2018-04-18T12:25:54.212Z,13.12
2018-04-18T12:31:45.092Z,14.2
2018-04-18T12:37:36.043Z,18.13
2018-04-18T12:43:27.004Z,20.8
2018-04-18T12:49:17.906Z,21.82
2018-04-18T12:55:08.780Z,27.02
2018-04-18T13:00:59.751Z,18.92
2018-04-18T13:06:50.606Z,12.01
2018-04-18T13:12:41.532Z,7.97
2018-04-18T13:18:32.461Z,6.52
2018-04-18T13:24:23.416Z,5.47
2018-04-18T13:30:14.774Z,12.16
2018-04-18T13:36:05.286Z,15.36
2018-04-18T13:41:56.203Z,17.47
2018-04-18T13:47:47.133Z,23.58
2018-04-18T13:53:38.064Z,17.66
2018-04-18T13:59:28.987Z,22.6
2018-04-18T14:05:19.947Z,20.15
2018-04-18T14:11:10.892Z,17.5
2018-04-18T14:17:01.827Z,23.26
2018-04-18T14:22:52.757Z,31.11
2018-04-18T14:28:43.666Z,36.56
2018-04-18T14:34:34.772Z,39.78
2018-04-18T14:40:25.561Z,46.89
2018-04-18T14:46:16.484Z,33.63
2018-04-18T14:52:07.443Z,21.78
2018-04-18T14:57:58.386Z,12.52
2018-04-18T15:03:49.256Z,11.04
2018-04-18T15:09:40.194Z,9.59
2018-04-18T15:15:31.077Z,16.04
2018-04-18T15:21:22.010Z,21.4
2018-04-18T15:27:12.935Z,29.08
2018-04-18T15:33:03.908Z,26.14
2018-04-18T15:38:54.858Z,22.93
2018-04-18T15:44:45.721Z,21.3
2018-04-18T15:50:36.625Z,16.79
2018-04-18T15:56:27.659Z,17.11
2018-04-18T16:02:18.568Z,19.95
2018-04-18T16:08:09.446Z,21.87
2018-04-18T16:14:00.329Z,21.75
2018-04-18T16:19:51.253Z,22.72
2018-04-18T16:25:42.205Z,21.28
2018-04-18T16:31:33.089Z,22.98
2018-04-18T16:37:24.010Z,22.71
2018-04-18T16:43:14.949Z,16.1
2018-04-18T16:49:05.897Z,17.71
2018-04-18T16:54:56.843Z,14.21
2018-04-18T17:00:47.739Z,10.26
2018-04-18T17:06:38.712Z,14.13
2018-04-18T17:12:29.529Z,10.19
2018-04-18T17:18:20.463Z,10.54
2018-04-18T17:24:11.335Z,10.25
2018-04-18T17:30:02.339Z,6.7
2018-04-18T17:35:53.181Z,9.85
2018-04-18T17:41:44.112Z,8.15
2018-04-18T17:47:35.089Z,9.63
2018-04-18T17:53:25.920Z,10.33
2018-04-18T17:59:16.911Z,10.28
2018-04-18T18:05:07.743Z,10.78
2018-04-18T18:10:58.630Z,9.12
2018-04-18T18:16:49.635Z,6.89
2018-04-18T18:22:40.466Z,10.52
2018-04-18T18:28:31.367Z,6.94
2018-04-18T18:34:22.352Z,12.46
2018-04-18T18:40:13.170Z,8.39
2018-04-18T18:46:04.148Z,6.98
2018-04-18T18:51:55.001Z,5.65
2018-04-18T18:57:45.904Z,6.71
2018-04-18T19:03:36.789Z,10.52
2018-04-18T19:09:27.736Z,8.29
2018-04-18T19:15:18.715Z,5.7
2018-04-18T19:21:09.562Z,7.18
2018-04-18T19:27:00.431Z,7.45
2018-04-18T19:32:51.350Z,9.83
2018-04-18T19:38:42.253Z,5.75
2018-04-18T19:44:33.174Z,4.91
2018-04-18T19:50:24.059Z,6.84
2018-04-18T19:56:15.017Z,5.82
2018-04-18T20:02:05.902Z,9.02
2018-04-18T20:07:56.800Z,5.84
2018-04-18T20:13:47.682Z,4.8
2018-04-18T20:19:38.575Z,8.05
2018-04-18T20:25:29.485Z,5.22
2018-04-18T20:31:20.360Z,5.89
2018-04-18T20:37:11.295Z,6.31
2018-04-18T20:43:02.196Z,5.25
2018-04-18T20:48:53.081Z,4.49
2018-04-18T20:54:44.006Z,4.99
2018-04-18T21:00:34.882Z,5.06
2018-04-18T21:06:25.789Z,5.43
2018-04-18T21:12:16.637Z,5.71
2018-04-18T21:18:07.521Z,5.28
2018-04-18T21:23:58.457Z,5.21
2018-04-18T21:29:49.373Z,6.09
2018-04-18T21:35:40.218Z,5.59
2018-04-18T21:41:31.199Z,4.31
2018-04-18T21:47:22.053Z,5.14
2018-04-18T21:53:12.918Z,6.16
2018-04-18T21:59:03.858Z,5.8
2018-04-18T22:04:54.760Z,8.27
2018-04-18T22:10:45.659Z,6.44
2018-04-18T22:15:54.751Z,7.46
2018-04-18T22:21:44.758Z,4.17
2018-04-18T22:27:35.181Z,9.38
2018-04-18T22:39:15.535Z,7.05
2018-04-18T22:45:05.357Z,5.22
2018-04-18T22:50:55.560Z,6.22
2018-04-18T22:56:45.584Z,7.31
2018-04-18T23:02:35.751Z,5.45
2018-04-18T23:08:25.786Z,4.5
2018-04-18T23:14:16.170Z,3.41
2018-04-18T23:20:05.992Z,3.57
2018-04-18T23:25:56.278Z,4.84
2018-04-18T23:31:46.199Z,4.31
2018-04-18T23:37:36.423Z,5.28
2018-04-18T23:43:26.439Z,5.32
2018-04-18T23:49:16.621Z,4.75
2018-04-18T23:55:06.672Z,5.19
